METAR AND TAF INFORMATION
METAR FOR KRVS
KRVS 270353Z 21008G17KT 10SM FEW110 24/06 A2950 RMK AO2 PK WND 19028/0343 SLP995 LAST T02390061
KRVS 270253Z 19004KT 10SM CLR 22/05 A2951 RMK AO2 SLP998 T02170050 58004
KRVS 270520Z 2706/2806 20008G17KT P6SM BKN150 WS020/24045KT
FM271500 20012G21KT P6SM BKN150
FM271800 22016G30KT P6SM BKN200
FM280300 35018G31KT P6SM BKN120

 AIRPORT MAP

 RUNWAY INFORMATION
Runway 01L Runway length 5103 ft Runway width 100 ft
Runway elevation 622 ft Runway displaced threshold 0 ft Runway heading 13
Runway 19R Runway length 5103 ft Runway width 100 ft
Runway elevation 638 ft Runway displaced threshold 0 ft Runway heading 193
Runway 01R Runway length 4212 ft Runway width 100 ft
Runway elevation 619 ft Runway displaced threshold 0 ft Runway heading 13
Runway 19L Runway length 4212 ft Runway width 100 ft
Runway elevation 630 ft Runway displaced threshold 142 ft Runway heading 193
Runway 13 Runway length 2807 ft Runway width 50 ft
Runway elevation 624 ft Runway displaced threshold 0 ft Runway heading 133
Runway 31 Runway length 2807 ft Runway width 50 ft
Runway elevation 615 ft Runway displaced threshold 0 ft Runway heading 313

 AIRPORT FREQUENCIES
Type A/D Name TULSA APP/ Frequency 119.85 MHZ
Type ATIS Name ATIS Frequency 126.5 MHZ
Type CLD Name CLNC DEL Frequency 124.5 MHZ
Type CTAF Name CTAF Frequency 120.3 MHZ
Type GND Name GND Frequency 121.7 MHZ
Type TWR Name RIVERSIDE Frequency 119.2 MHZ
Type UNIC Name UNICOM Frequency 122.95 MHZ

 AIRPORT NEAR NAVIGATION AIDS

-